createdAt,value
2019-05-11T00:00:33.907Z,26.80
2019-05-11T00:05:40.094Z,27.47
2019-05-11T00:10:46.427Z,26.20
2019-05-11T00:15:52.589Z,28.47
2019-05-11T00:20:58.864Z,29.33
2019-05-11T00:26:05.215Z,30.27
2019-05-11T00:31:11.386Z,29.60
2019-05-11T00:36:17.559Z,30.52
2019-05-11T00:41:23.836Z,31.23
2019-05-11T00:46:29.983Z,31.67
2019-05-11T00:51:36.040Z,32.20
2019-05-11T00:56:42.121Z,31.13
2019-05-11T01:01:48.206Z,32.65
2019-05-11T01:06:54.452Z,32.25
2019-05-11T01:12:01.363Z,33.05
2019-05-11T01:17:07.460Z,32.85
2019-05-11T01:22:14.053Z,36.28
2019-05-11T01:27:20.152Z,37.57
2019-05-11T01:32:26.238Z,38.23
2019-05-11T01:37:32.594Z,38.57
2019-05-11T01:42:38.833Z,39.47
2019-05-11T01:47:45.076Z,41.47
2019-05-11T01:52:51.351Z,40.63
2019-05-11T01:57:57.501Z,38.75
2019-05-11T02:03:03.846Z,38.63
2019-05-11T02:08:10.036Z,40.90
2019-05-11T02:13:16.388Z,41.27
2019-05-11T02:18:23.458Z,39.37
2019-05-11T02:23:30.777Z,40.47
2019-05-11T02:28:37.032Z,41.20
2019-05-11T02:33:43.657Z,43.23
2019-05-11T02:38:49.685Z,42.03
2019-05-11T02:43:56.120Z,41.00
2019-05-11T02:49:02.137Z,42.40
2019-05-11T02:54:10.630Z,44.85
2019-05-11T02:59:16.851Z,43.13
2019-05-11T03:04:23.059Z,44.27
2019-05-11T03:09:29.168Z,44.43
2019-05-11T03:14:35.241Z,45.30
2019-05-11T03:19:41.276Z,45.00
2019-05-11T03:24:47.600Z,44.30
2019-05-11T03:29:53.959Z,44.15
2019-05-11T03:35:00.087Z,43.30
2019-05-11T03:40:06.889Z,44.90
2019-05-11T03:45:13.803Z,45.10
2019-05-11T03:50:20.163Z,43.92
2019-05-11T03:55:26.323Z,41.45
2019-05-11T04:00:34.394Z,45.27
2019-05-11T04:05:40.569Z,43.02
2019-05-11T04:10:46.689Z,45.40
2019-05-11T04:15:53.077Z,46.10
2019-05-11T04:20:59.277Z,45.67
2019-05-11T04:26:06.481Z,42.60
2019-05-11T04:31:14.444Z,43.50
2019-05-11T04:36:20.929Z,42.30
2019-05-11T04:41:27.076Z,42.83
2019-05-11T04:46:33.378Z,43.67
2019-05-11T04:51:39.597Z,42.48
2019-05-11T04:56:45.985Z,43.20
2019-05-11T05:01:52.212Z,41.53
2019-05-11T05:07:00.068Z,40.57
2019-05-11T05:12:08.409Z,39.23
2019-05-11T05:17:13.949Z,42.07
2019-05-11T05:22:20.187Z,42.07
2019-05-11T05:27:26.291Z,39.17
2019-05-11T05:32:32.467Z,37.05
2019-05-11T05:37:38.692Z,35.50
2019-05-11T05:42:46.133Z,35.17
2019-05-11T05:47:52.305Z,34.98
2019-05-11T05:52:58.992Z,35.35
2019-05-11T05:58:05.620Z,35.35
2019-05-11T06:03:11.883Z,34.83
2019-05-11T06:08:18.179Z,38.20
2019-05-11T06:13:24.476Z,36.20
2019-05-11T06:18:30.681Z,34.30
2019-05-11T06:23:37.334Z,34.90
2019-05-11T06:28:43.429Z,32.63
2019-05-11T06:33:49.586Z,33.70
2019-05-11T06:38:55.671Z,32.73
2019-05-11T06:44:02.403Z,31.33
2019-05-11T06:49:09.762Z,32.50
2019-05-11T06:54:15.914Z,31.13
2019-05-11T06:59:22.118Z,31.23
2019-05-11T07:04:28.269Z,30.17
2019-05-11T07:09:34.521Z,29.77
2019-05-11T07:14:40.731Z,28.20
2019-05-11T07:19:47.639Z,28.70
2019-05-11T07:24:54.110Z,29.43
2019-05-11T07:30:00.404Z,27.20
2019-05-11T07:35:08.390Z,27.33
2019-05-11T07:40:15.195Z,27.40
2019-05-11T07:45:21.870Z,25.65
2019-05-11T07:50:28.530Z,27.13
2019-05-11T07:55:34.989Z,24.83
2019-05-11T08:00:41.392Z,25.70
2019-05-11T08:05:47.956Z,24.98
2019-05-11T08:10:55.338Z,25.03
2019-05-11T08:16:01.707Z,24.45
2019-05-11T08:21:08.853Z,24.93
2019-05-11T08:26:15.113Z,24.72
2019-05-11T08:31:21.336Z,24.85
2019-05-11T08:36:28.943Z,23.07
2019-05-11T08:41:38.470Z,21.00
2019-05-11T08:46:45.025Z,22.63
2019-05-11T08:51:51.151Z,21.13
2019-05-11T08:56:58.788Z,19.63
2019-05-11T09:02:05.162Z,19.00
2019-05-11T09:07:11.531Z,18.50
2019-05-11T09:12:18.343Z,17.23
2019-05-11T09:17:24.908Z,16.60
2019-05-11T09:22:31.197Z,17.93
2019-05-11T09:27:37.750Z,15.80
2019-05-11T09:32:44.055Z,17.13
2019-05-11T09:37:50.246Z,17.40
2019-05-11T09:42:58.551Z,16.75
2019-05-11T09:48:05.274Z,15.80
2019-05-11T09:53:11.480Z,14.35
2019-05-11T09:58:19.812Z,14.50
2019-05-11T10:03:28.156Z,15.63
2019-05-11T10:08:34.125Z,15.07
2019-05-11T10:13:41.088Z,16.17
2019-05-11T10:18:49.250Z,14.63
2019-05-11T10:30:01.830Z,15.00
2019-05-11T10:35:08.431Z,13.75
2019-05-11T10:40:15.126Z,15.03
2019-05-11T10:45:21.269Z,14.00
2019-05-11T10:50:28.768Z,13.00
2019-05-11T10:55:35.096Z,13.40
2019-05-11T11:00:41.455Z,13.38
2019-05-11T11:05:48.764Z,10.60
2019-05-11T11:10:55.425Z,10.30
2019-05-11T11:16:02.167Z,10.50
2019-05-11T11:21:08.851Z,10.82
2019-05-11T11:26:15.165Z,10.77
2019-05-11T11:31:21.435Z,10.75
2019-05-11T11:36:28.324Z,10.03
2019-05-11T11:41:34.918Z,9.37
2019-05-11T11:46:54.259Z,8.83
2019-05-11T11:51:49.411Z,8.23
2019-05-11T11:56:56.173Z,8.28
2019-05-11T12:02:02.614Z,6.47
2019-05-11T12:07:09.113Z,7.13
2019-05-11T12:12:15.364Z,6.80
2019-05-11T12:17:21.760Z,6.67
2019-05-11T12:22:28.134Z,7.83
2019-05-11T12:27:34.461Z,5.90
2019-05-11T12:32:48.801Z,6.27
2019-05-11T12:37:55.682Z,6.33
2019-05-11T12:43:01.863Z,6.17
2019-05-11T12:48:09.007Z,5.50
2019-05-11T12:53:15.811Z,5.70
2019-05-11T12:58:24.493Z,5.77
2019-05-11T13:03:31.737Z,5.30
2019-05-11T13:08:38.847Z,5.93
2019-05-11T13:13:48.153Z,5.90
2019-05-11T13:18:54.175Z,5.70
2019-05-11T13:24:00.347Z,5.30
2019-05-11T13:29:07.727Z,5.83
2019-05-11T13:34:14.235Z,4.87
2019-05-11T13:39:20.604Z,5.25
2019-05-11T13:44:27.970Z,5.07
2019-05-11T13:49:37.669Z,4.77
2019-05-11T13:54:43.525Z,5.45
2019-05-11T13:59:49.985Z,4.75
2019-05-11T14:04:58.268Z,4.60
2019-05-11T14:10:07.861Z,4.13
2019-05-11T14:15:13.535Z,4.77
2019-05-11T14:20:19.738Z,4.40
2019-05-11T14:25:27.922Z,4.00
2019-05-11T14:30:34.092Z,4.43
2019-05-11T14:35:40.291Z,4.33
2019-05-11T14:40:48.046Z,4.20
2019-05-11T14:45:54.493Z,3.70
2019-05-11T14:51:00.843Z,3.47
2019-05-11T14:56:08.563Z,3.53
2019-05-11T15:01:15.092Z,3.93
2019-05-11T15:06:21.370Z,3.90
2019-05-11T15:11:29.090Z,3.23
2019-05-11T15:16:35.511Z,2.70
2019-05-11T15:21:41.824Z,2.65
2019-05-11T15:26:48.612Z,2.70
2019-05-11T15:31:55.087Z,2.70
2019-05-11T15:37:01.241Z,2.90
2019-05-11T15:42:14.861Z,3.77
2019-05-11T15:47:15.388Z,2.10
2019-05-11T15:52:22.133Z,2.55
2019-05-11T15:57:28.541Z,2.40
2019-05-11T16:02:34.820Z,1.73
2019-05-11T16:07:41.051Z,1.97
2019-05-11T16:12:49.051Z,2.25
2019-05-11T16:17:57.770Z,2.47
2019-05-11T16:23:04.035Z,2.40
2019-05-11T16:28:10.599Z,2.25
2019-05-11T16:33:17.981Z,2.17
2019-05-11T16:38:24.978Z,2.73
2019-05-11T16:43:31.361Z,2.60
2019-05-11T16:48:38.308Z,2.23
2019-05-11T16:53:44.796Z,2.70
2019-05-11T16:58:51.077Z,2.47
2019-05-11T17:03:59.447Z,2.60
2019-05-11T17:09:08.790Z,2.65
2019-05-11T17:14:15.336Z,2.70
2019-05-11T17:19:21.593Z,2.70
2019-05-11T17:24:28.442Z,2.67
2019-05-11T17:29:34.871Z,2.43
2019-05-11T17:34:41.551Z,2.30
2019-05-11T17:44:51.500Z,2.40
2019-05-11T17:50:03.382Z,2.47
2019-05-11T17:55:05.939Z,2.22
2019-05-11T18:00:13.320Z,2.93
2019-05-11T18:05:20.696Z,2.50
2019-05-11T18:10:28.279Z,2.67
2019-05-11T18:15:34.887Z,2.43
2019-05-11T18:20:41.135Z,2.63
2019-05-11T18:25:48.063Z,2.20
2019-05-11T18:30:54.243Z,2.40
2019-05-11T18:36:00.506Z,2.23
2019-05-11T18:41:06.701Z,2.45
2019-05-11T18:46:13.003Z,2.40
2019-05-11T18:51:19.366Z,2.40
2019-05-11T18:56:25.537Z,2.77
2019-05-11T19:01:31.704Z,3.03
2019-05-11T19:06:38.033Z,3.33
2019-05-11T19:11:44.401Z,3.03
2019-05-11T19:16:50.637Z,2.10
2019-05-11T19:21:58.619Z,3.60
2019-05-11T19:27:07.976Z,3.00
2019-05-11T19:32:13.671Z,3.80
2019-05-11T19:37:19.924Z,4.83
2019-05-11T19:42:28.453Z,4.17
2019-05-11T19:47:34.474Z,4.50
2019-05-11T19:52:40.639Z,3.25
2019-05-11T19:57:48.205Z,3.50
2019-05-11T20:02:54.695Z,3.07
2019-05-11T20:08:00.797Z,2.90
2019-05-11T20:13:07.967Z,2.90
2019-05-11T20:18:14.480Z,2.47
2019-05-11T20:23:20.576Z,2.97
2019-05-11T20:28:28.505Z,3.20
2019-05-11T20:33:34.748Z,2.22
2019-05-11T20:38:41.055Z,2.63
2019-05-11T20:43:47.299Z,2.60
2019-05-11T20:48:53.525Z,2.20
2019-05-11T20:53:59.774Z,2.57
2019-05-11T20:59:08.038Z,2.25
2019-05-11T21:04:14.174Z,2.13
2019-05-11T21:09:20.202Z,2.30
2019-05-11T21:14:28.614Z,2.20
2019-05-11T21:19:34.255Z,2.20
2019-05-11T21:24:40.405Z,2.43
2019-05-11T21:29:48.947Z,2.90
2019-05-11T21:34:54.270Z,2.20
2019-05-11T21:40:00.517Z,2.22
2019-05-11T21:45:09.227Z,2.03
2019-05-11T21:50:15.132Z,2.00
2019-05-11T21:55:21.328Z,2.20
2019-05-11T22:00:30.627Z,2.20
2019-05-11T22:05:38.397Z,2.37
2019-05-11T22:10:45.049Z,2.47
2019-05-11T22:15:51.288Z,2.60
2019-05-11T22:20:57.921Z,2.50
2019-05-11T22:26:07.595Z,2.30
2019-05-11T22:31:13.142Z,2.67
2019-05-11T22:36:19.269Z,2.70
2019-05-11T22:41:25.460Z,2.80
2019-05-11T22:46:31.694Z,2.60
2019-05-11T22:51:37.732Z,2.60
2019-05-11T22:56:43.927Z,2.30
2019-05-11T23:01:50.256Z,2.20
2019-05-11T23:06:58.441Z,2.60
2019-05-11T23:12:05.653Z,2.25
2019-05-11T23:17:13.682Z,2.90
2019-05-11T23:22:21.116Z,2.80
2019-05-11T23:27:28.574Z,2.97
2019-05-11T23:32:34.853Z,3.00
2019-05-11T23:37:42.609Z,3.20
2019-05-11T23:42:49.283Z,3.07
2019-05-11T23:47:55.646Z,3.20
2019-05-11T23:53:06.462Z,3.10
2019-05-11T23:58:09.535Z,3.35
